Bookmark and Share
Track history (hours):
 

Ballerina Sjovagen

Last reported at 2014-Apr-16 13:24 UTC. Time now 2014-Apr-16 13:45 UTC.
Position N 59°22' E 018°06'.

Type: Passenger vessel. MMSI: 265550720.

NotesDate/timePositionNaut miles runAvg speedWind from/ knotsBaromVisibWave heightAir tempDewpointWater temp
2014-Apr-16 13:24N 59°22' E 018°06'1 0.2
2014-Apr-16 06:29N 59°23' E 018°06'1 0.8
2014-Apr-16 05:33N 59°22' E 018°06'2 1.6
2014-Apr-16 04:31N 59°24' E 018°06'1 0.1
2014-Apr-15 17:27N 59°23' E 018°06'1 0.9
2014-Apr-15 16:08N 59°22' E 018°06'0 0.1
2014-Apr-15 12:34N 59°22' E 018°06'3 0.3
2014-Apr-15 02:34N 59°19' E 018°06'1 0.1
2014-Apr-14 14:32N 59°20' E 018°05'0 0.0
2014-Apr-14 13:32N 59°20' E 018°05'1 0.7
2014-Apr-14 11:33N 59°19' E 018°07'4 1.8
2014-Apr-14 09:33N 59°23' E 018°06'2 0.9
2014-Apr-14 07:30N 59°21' E 018°07'2 1.8
2014-Apr-14 06:30N 59°20' E 018°05'0 0.0
2014-Apr-13 19:10N 59°20' E 018°05'0 0.0
2014-Apr-13 18:31N 59°20' E 018°05'0 0.0
2014-Apr-13 17:32N 59°20' E 018°05'0 0.0
2014-Apr-13 16:32N 59°20' E 018°05'0 0.0
2014-Apr-13 15:31N 59°20' E 018°05'0 0.0
2014-Apr-13 14:33N 59°20' E 018°05'0 0.0
2014-Apr-13 13:33N 59°20' E 018°05'0 0.0
2014-Apr-13 12:33N 59°20' E 018°05'0 0.0
2014-Apr-13 11:33N 59°20' E 018°05'0 0.0
2014-Apr-11 13:31N 59°20' E 018°05'0 0.3
2014-Apr-11 12:31N 59°20' E 018°05'0 0.3
2014-Apr-11 11:33N 59°20' E 018°05'0 0.3
2014-Apr-11 10:33N 59°20' E 018°05'0 0.0
2014-Apr-11 09:30N 59°20' E 018°05'0 0.0
2014-Apr-11 08:29N 59°20' E 018°05'0 0.0
2014-Apr-11 07:31N 59°20' E 018°05'0 0.0
2014-Apr-10 19:04N 59°20' E 018°05'0 0.6
2014-Apr-10 18:33N 59°20' E 018°05'3 2.1
2014-Apr-10 17:18N 59°19' E 018°10'2 2.5
2014-Apr-10 16:33N 59°19' E 018°06'1 1.5
2014-Apr-10 15:33N 59°19' E 018°09'0 0.4
2014-Apr-10 14:33N 59°19' E 018°08'0 0.5
2014-Apr-10 13:34N 59°19' E 018°07'2 1.6
2014-Apr-10 12:27N 59°21' E 018°09'2 2.5
2014-Apr-10 11:33N 59°20' E 018°05'2 1.8
2014-Apr-10 10:33N 59°21' E 018°08'2 1.7
2014-Apr-10 09:33N 59°19' E 018°06'2 1.6
2014-Apr-10 08:26N 59°19' E 018°09'2 2.6
2014-Apr-10 07:31N 59°20' E 018°05'2 1.7
2014-Apr-10 06:33N 59°19' E 018°07'0 0.5
2014-Apr-10 05:33N 59°19' E 018°08'1 1.1
2014-Apr-10 04:28N 59°20' E 018°09'2 2.3
2014-Apr-10 03:26N 59°20' E 018°05'0 0.0
2014-Apr-09 19:06N 59°20' E 018°05'0 0.2
2014-Apr-09 18:33N 59°20' E 018°05'3 2.2
2014-Apr-09 17:23N 59°19' E 018°10'2 1.8
2014-Apr-09 16:33N 59°19' E 018°07'2 1.9
2014-Apr-09 15:31N 59°21' E 018°09'2 2.3
2014-Apr-09 14:33N 59°20' E 018°05'2 2.0
2014-Apr-09 13:33N 59°21' E 018°08'2 1.9
2014-Apr-09 12:32N 59°20' E 018°05'0 0.2
2014-Apr-09 11:33N 59°20' E 018°05'0 0.0
2014-Apr-09 10:30N 59°20' E 018°05'0 0.0
2014-Apr-09 09:15N 59°20' E 018°05'  

Dump ship's entire track history

sailing weather and tide predictions

Ballerina Sjovagen — SKNY — position and weather